Garibaldi, Canada
Current Conditions -  °F | °C
As of 5:08 AM on Wednesday 22 Oct 2014 (Local Time) from CYVR Reporting Station
Scattered Clouds Scattered Clouds  
Wind Chill: 54°   Ceiling: Unl
Heat Index: 54°   Visibility: 10mi
Dew Point: 52°   Wind: 20mph
Humidity: 94%   Direction: 140°SE
Pressure: 29.58"   Gusts: 26mph
Location:  49.98°N, 123.15°W
Report Text: CYVR 221208Z 14017G23KT 10SM FEW011 FEW040 SCT070 SCT150 12/11 A2958 RMK CF1SC1AC1AC1 SLP015
Loading
Personal Weather Stations






























Interactive Weather Map
Tropical Storm Tracking
New forecast layout! Learn more

10-Day Weather Forecast

Advertisements
Track Severe Weather on mobile